AOJ74J EDDF-LOWW
Flight info
| Callsign | AOJ74J |
|---|---|
| Flight time | N/A |
| Altitude | 35000 |
| Route | SULUS7S/18 SULUS Z650 VEMUT DCT BUDEX BUDEX2W |
| Aircraft | C750/M-SBDE3FGHRWXY/S |
Departure
| Time | 2026-05-03 20:27 |
|---|---|
| Airport | Frankfurt Main Airport (EDDF) |
Arrival
| Time | N/A |
|---|---|
| Airport | Vienna International Airport (LOWW) |
| Time | Latitude | Longitude | Altitude | Speed | Heading |
|---|---|---|---|---|---|
| 2026-05-03 20:15 | 50.03880 | 8.54888 | 346 ft | 0 kts | 159° |
| 2026-05-03 20:21 | 50.03879 | 8.54888 | 346 ft | 0 kts | 159° |
| 2026-05-03 20:21 | 50.03855 | 8.54902 | 350 ft | 7 kts | 158° |
| 2026-05-03 20:22 | 50.03809 | 8.54912 | 344 ft | 6 kts | 210° |
| 2026-05-03 20:22 | 50.03788 | 8.54865 | 344 ft | 11 kts | 245° |
| 2026-05-03 20:22 | 50.03759 | 8.54740 | 346 ft | 12 kts | 250° |
| 2026-05-03 20:22 | 50.03725 | 8.54602 | 343 ft | 14 kts | 250° |
| 2026-05-03 20:23 | 50.03685 | 8.54432 | 337 ft | 18 kts | 250° |
| 2026-05-03 20:23 | 50.03643 | 8.54253 | 337 ft | 17 kts | 249° |
| 2026-05-03 20:23 | 50.03603 | 8.54088 | 337 ft | 16 kts | 249° |
| 2026-05-03 20:23 | 50.03566 | 8.53932 | 337 ft | 15 kts | 249° |
| 2026-05-03 20:24 | 50.03528 | 8.53776 | 335 ft | 17 kts | 249° |
| 2026-05-03 20:24 | 50.03485 | 8.53598 | 335 ft | 18 kts | 249° |
| 2026-05-03 20:24 | 50.03444 | 8.53423 | 333 ft | 17 kts | 251° |
| 2026-05-03 20:24 | 50.03404 | 8.53258 | 330 ft | 16 kts | 249° |
| 2026-05-03 20:25 | 50.03365 | 8.53098 | 333 ft | 16 kts | 249° |
| 2026-05-03 20:25 | 50.03329 | 8.52945 | 331 ft | 15 kts | 250° |
| 2026-05-03 20:25 | 50.03295 | 8.52799 | 331 ft | 14 kts | 250° |
| 2026-05-03 20:25 | 50.03257 | 8.52668 | 330 ft | 12 kts | 230° |
| 2026-05-03 20:26 | 50.03192 | 8.52604 | 332 ft | 11 kts | 197° |
| 2026-05-03 20:26 | 50.03066 | 8.52597 | 332 ft | 49 kts | 179° |
| 2026-05-03 20:26 | 50.02350 | 8.52604 | 333 ft | 143 kts | 180° |
| 2026-05-03 20:26 | 50.01248 | 8.52620 | 516 ft | 173 kts | 181° |
| 2026-05-03 20:27 | 50.00014 | 8.52638 | 1265 ft | 176 kts | 182° |
| 2026-05-03 20:27 | 49.98746 | 8.52620 | 1886 ft | 193 kts | 185° |
| 2026-05-03 20:27 | 49.97330 | 8.52813 | 2316 ft | 218 kts | 166° |
| 2026-05-03 20:27 | 49.96100 | 8.54246 | 3142 ft | 229 kts | 135° |
| 2026-05-03 20:28 | 49.95276 | 8.56376 | 3865 ft | 231 kts | 124° |
| 2026-05-03 20:28 | 49.94497 | 8.58643 | 4072 ft | 245 kts | 124° |
| 2026-05-03 20:28 | 49.94050 | 8.61203 | 4959 ft | 245 kts | 100° |
| 2026-05-03 20:28 | 49.93950 | 8.63840 | 5775 ft | 246 kts | 99° |
| 2026-05-03 20:29 | 49.93846 | 8.66462 | 6505 ft | 247 kts | 101° |
| 2026-05-03 20:29 | 49.93473 | 8.69011 | 7119 ft | 239 kts | 124° |
| 2026-05-03 20:29 | 49.92466 | 8.70941 | 7912 ft | 225 kts | 148° |
| 2026-05-03 20:29 | 49.91203 | 8.72346 | 8676 ft | 224 kts | 153° |
| 2026-05-03 20:30 | 49.89917 | 8.73760 | 9404 ft | 229 kts | 152° |
| 2026-05-03 20:30 | 49.88636 | 8.75280 | 10026 ft | 239 kts | 144° |
| 2026-05-03 20:30 | 49.87695 | 8.77504 | 10567 ft | 251 kts | 125° |
| 2026-05-03 20:30 | 49.86857 | 8.79908 | 10979 ft | 259 kts | 125° |
| 2026-05-03 20:31 | 49.85983 | 8.82316 | 10963 ft | 255 kts | 126° |
| 2026-05-03 20:31 | 49.85115 | 8.84692 | 10952 ft | 252 kts | 127° |
| 2026-05-03 20:31 | 49.84254 | 8.87064 | 10952 ft | 252 kts | 126° |
| 2026-05-03 20:31 | 49.83397 | 8.89431 | 10950 ft | 252 kts | 127° |
| 2026-05-03 20:32 | 49.82536 | 8.91801 | 10954 ft | 253 kts | 127° |
| 2026-05-03 20:32 | 49.81659 | 8.94207 | 10963 ft | 267 kts | 127° |
| 2026-05-03 20:32 | 49.80693 | 8.96825 | 11023 ft | 294 kts | 126° |
| 2026-05-03 20:32 | 49.79640 | 8.99714 | 11206 ft | 321 kts | 125° |
| 2026-05-03 20:33 | 49.78504 | 9.02849 | 11390 ft | 347 kts | 124° |
| 2026-05-03 20:33 | 49.77286 | 9.06197 | 11738 ft | 361 kts | 124° |
| 2026-05-03 20:33 | 49.76143 | 9.09674 | 12460 ft | 369 kts | 115° |
| 2026-05-03 20:33 | 49.75507 | 9.13574 | 13106 ft | 376 kts | 107° |
| 2026-05-03 20:34 | 49.74904 | 9.17531 | 13751 ft | 380 kts | 107° |
| 2026-05-03 20:34 | 49.74240 | 9.21504 | 14358 ft | 384 kts | 108° |
| 2026-05-03 20:34 | 49.73581 | 9.25520 | 14982 ft | 387 kts | 106° |
| 2026-05-03 20:34 | 49.73429 | 9.29723 | 15490 ft | 397 kts | 89° |
| 2026-05-03 20:35 | 49.73608 | 9.33984 | 16182 ft | 398 kts | 89° |
| 2026-05-03 20:35 | 49.73764 | 9.38274 | 16849 ft | 401 kts | 89° |
| 2026-05-03 20:35 | 49.73909 | 9.42604 | 17510 ft | 405 kts | 89° |
| 2026-05-03 20:35 | 49.74066 | 9.46906 | 18231 ft | 408 kts | 89° |
| 2026-05-03 20:36 | 49.74233 | 9.51299 | 18845 ft | 411 kts | 89° |
| 2026-05-03 20:36 | 49.74392 | 9.55722 | 19455 ft | 414 kts | 89° |
| 2026-05-03 20:36 | 49.74546 | 9.60193 | 20067 ft | 418 kts | 89° |
| 2026-05-03 20:36 | 49.74702 | 9.64697 | 20701 ft | 422 kts | 89° |
| 2026-05-03 20:37 | 49.74862 | 9.69249 | 21346 ft | 426 kts | 89° |
| 2026-05-03 20:37 | 49.75020 | 9.73840 | 21956 ft | 430 kts | 89° |
| 2026-05-03 20:37 | 49.75175 | 9.78439 | 22630 ft | 423 kts | 89° |
| 2026-05-03 20:37 | 49.75328 | 9.82975 | 23360 ft | 424 kts | 90° |
| 2026-05-03 20:38 | 49.75478 | 9.87627 | 23442 ft | 441 kts | 90° |
| 2026-05-03 20:38 | 49.75632 | 9.92379 | 24022 ft | 443 kts | 90° |
| 2026-05-03 20:38 | 49.75789 | 9.97146 | 24536 ft | 446 kts | 90° |
| 2026-05-03 20:38 | 49.75941 | 10.01950 | 25015 ft | 449 kts | 89° |
| 2026-05-03 20:39 | 49.76092 | 10.06790 | 25522 ft | 453 kts | 90° |
| 2026-05-03 20:39 | 49.76243 | 10.11669 | 26017 ft | 456 kts | 90° |
| 2026-05-03 20:39 | 49.76394 | 10.16586 | 26510 ft | 459 kts | 90° |
| 2026-05-03 20:39 | 49.76543 | 10.21535 | 27010 ft | 462 kts | 90° |
| 2026-05-03 20:40 | 49.76690 | 10.26522 | 27511 ft | 466 kts | 90° |
| 2026-05-03 20:40 | 49.76837 | 10.31542 | 28012 ft | 469 kts | 90° |
| 2026-05-03 20:40 | 49.76983 | 10.36600 | 28510 ft | 472 kts | 90° |
| 2026-05-03 20:40 | 49.77127 | 10.41697 | 29008 ft | 476 kts | 90° |
| 2026-05-03 20:41 | 49.77270 | 10.46828 | 29501 ft | 479 kts | 90° |
| 2026-05-03 20:41 | 49.77411 | 10.51980 | 30033 ft | 481 kts | 90° |
| 2026-05-03 20:41 | 49.77553 | 10.57168 | 30441 ft | 484 kts | 90° |
| 2026-05-03 20:41 | 49.77691 | 10.62386 | 30879 ft | 487 kts | 90° |
| 2026-05-03 20:42 | 49.77827 | 10.67611 | 31496 ft | 484 kts | 90° |
| 2026-05-03 20:42 | 49.77961 | 10.72794 | 32169 ft | 481 kts | 90° |
| 2026-05-03 20:42 | 49.78092 | 10.77957 | 32810 ft | 479 kts | 90° |
| 2026-05-03 20:42 | 49.78219 | 10.83095 | 33466 ft | 477 kts | 91° |
| 2026-05-03 20:43 | 49.78343 | 10.88208 | 34105 ft | 475 kts | 91° |
| 2026-05-03 20:43 | 49.78464 | 10.93307 | 34588 ft | 474 kts | 90° |
| 2026-05-03 20:43 | 49.78583 | 10.98417 | 35033 ft | 475 kts | 90° |
| 2026-05-03 20:43 | 49.78702 | 11.03528 | 35529 ft | 475 kts | 90° |
| 2026-05-03 20:44 | 49.78817 | 11.08631 | 36036 ft | 475 kts | 90° |
| 2026-05-03 20:44 | 49.78930 | 11.13737 | 36537 ft | 475 kts | 90° |
| 2026-05-03 20:44 | 49.79041 | 11.18840 | 37036 ft | 474 kts | 90° |
| 2026-05-03 20:44 | 49.79149 | 11.23941 | 37537 ft | 474 kts | 90° |
| 2026-05-03 20:45 | 49.79255 | 11.29039 | 38047 ft | 474 kts | 90° |
| 2026-05-03 20:45 | 49.79359 | 11.34132 | 38555 ft | 474 kts | 90° |
| 2026-05-03 20:45 | 49.79460 | 11.39224 | 38980 ft | 473 kts | 90° |
| 2026-05-03 20:45 | 49.79559 | 11.44284 | 39518 ft | 469 kts | 90° |
| 2026-05-03 20:46 | 49.79655 | 11.49327 | 39900 ft | 470 kts | 90° |
| 2026-05-03 20:46 | 49.79748 | 11.54316 | 40275 ft | 470 kts | 90° |
| 2026-05-03 20:46 | 49.79841 | 11.59443 | 40678 ft | 471 kts | 90° |
| 2026-05-03 20:46 | 49.79930 | 11.64445 | 41070 ft | 471 kts | 89° |
| 2026-05-03 20:47 | 49.80019 | 11.69583 | 41463 ft | 472 kts | 89° |
| 2026-05-03 20:47 | 49.80105 | 11.74659 | 41853 ft | 472 kts | 89° |
| 2026-05-03 20:47 | 49.80189 | 11.79746 | 42248 ft | 473 kts | 89° |
| 2026-05-03 20:47 | 49.80270 | 11.84835 | 42630 ft | 473 kts | 89° |
| 2026-05-03 20:48 | 49.80349 | 11.89927 | 43071 ft | 472 kts | 89° |
| 2026-05-03 20:48 | 49.80426 | 11.95011 | 43482 ft | 473 kts | 89° |
| 2026-05-03 20:48 | 49.80501 | 12.00097 | 43889 ft | 473 kts | 89° |
| 2026-05-03 20:48 | 49.80572 | 12.05113 | 44278 ft | 473 kts | 89° |
| 2026-05-03 20:49 | 49.80643 | 12.10206 | 44659 ft | 473 kts | 89° |
| 2026-05-03 20:49 | 49.80711 | 12.15307 | 44959 ft | 475 kts | 89° |
| 2026-05-03 20:49 | 49.80778 | 12.20464 | 44940 ft | 483 kts | 89° |
| 2026-05-03 20:50 | 49.80907 | 12.31019 | 44950 ft | 498 kts | 89° |
| 2026-05-03 20:50 | 49.80765 | 12.41855 | 44936 ft | 510 kts | 98° |
| 2026-05-03 20:51 | 49.78797 | 12.52362 | 44933 ft | 510 kts | 115° |
| 2026-05-03 20:51 | 49.74950 | 12.61489 | 44923 ft | 496 kts | 132° |
| 2026-05-03 20:51 | 49.72562 | 12.65168 | 44918 ft | 475 kts | 141° |
| 2026-05-03 20:52 | 49.69975 | 12.68220 | 44927 ft | 464 kts | 144° |
| 2026-05-03 20:52 | 49.65409 | 12.75384 | 44928 ft | 474 kts | 129° |
| 2026-05-03 20:53 | 49.61465 | 12.83566 | 44934 ft | 475 kts | 126° |
| 2026-05-03 20:53 | 49.57669 | 12.91891 | 44924 ft | 473 kts | 126° |
| 2026-05-03 20:53 | 49.55815 | 12.95989 | 44918 ft | 460 kts | 126° |
| 2026-05-03 20:54 | 49.53973 | 13.00064 | 44915 ft | 467 kts | 126° |
| 2026-05-03 20:54 | 49.50200 | 13.08405 | 44928 ft | 482 kts | 126° |
| 2026-05-03 20:54 | 49.48269 | 13.12670 | 44939 ft | 490 kts | 126° |
| 2026-05-03 20:55 | 49.44315 | 13.21390 | 44938 ft | 504 kts | 126° |
| 2026-05-03 20:55 | 49.40255 | 13.30335 | 44942 ft | 514 kts | 126° |
| 2026-05-03 20:56 | 49.36166 | 13.39340 | 44930 ft | 515 kts | 126° |
| 2026-05-03 20:56 | 49.32072 | 13.48341 | 44934 ft | 514 kts | 125° |
| 2026-05-03 20:57 | 49.27787 | 13.57076 | 44919 ft | 513 kts | 133° |
| 2026-05-03 20:57 | 49.23204 | 13.64370 | 44925 ft | 513 kts | 130° |